Terminal Aerodrome Forecast
Issued by NWS Twin Cities, MN

Home | Current Version | Previous Version | Text Only | Print | Product List | Glossary On
Versions: 1 2 3 4 5 6 7 8 9 10 11 12 13 14 15 16 17
532
FTUS43 KMPX 261125
TAFSTC
TAF
KSTC 261125Z 2612/2712 22008KT P6SM VCSH BKN015 OVC030
      TEMPO 2612/2615 2SM -SN BR OVC015
     FM261500 26009KT P6SM SCT015 BKN040
     FM261800 30012G18KT P6SM SCT035 BKN250
     FM270000 30005KT P6SM SCT050 BKN120
     FM270600 13002KT P6SM SCT040 OVC090=

USA.gov is the U.S. government's official web portal to all federal, state and local government web resources and services.